sensor_id;sensor_type;location;lat;lon;timestamp;P1;durP1;ratioP1;P2;durP2;ratioP2
69244;SDS011;56357;52.304;4.870;2023-04-25T00:00:37;8.60;;;1.27;;
69244;SDS011;56357;52.304;4.870;2023-04-25T00:03:03;9.70;;;1.30;;
69244;SDS011;56357;52.304;4.870;2023-04-25T00:05:30;6.67;;;1.30;;
69244;SDS011;56357;52.304;4.870;2023-04-25T00:07:57;8.63;;;1.23;;
69244;SDS011;56357;52.304;4.870;2023-04-25T00:10:24;8.45;;;1.25;;
69244;SDS011;56357;52.304;4.870;2023-04-25T00:12:51;7.63;;;1.45;;
69244;SDS011;56357;52.304;4.870;2023-04-25T00:15:17;8.07;;;1.20;;
69244;SDS011;56357;52.304;4.870;2023-04-25T00:17:43;9.40;;;1.53;;
69244;SDS011;56357;52.304;4.870;2023-04-25T00:20:11;8.27;;;1.52;;
69244;SDS011;56357;52.304;4.870;2023-04-25T00:22:37;7.63;;;1.08;;
69244;SDS011;56357;52.304;4.870;2023-04-25T00:25:04;9.48;;;1.40;;
69244;SDS011;56357;52.304;4.870;2023-04-25T00:27:32;8.18;;;1.45;;
69244;SDS011;56357;52.304;4.870;2023-04-25T00:29:58;9.93;;;1.43;;
69244;SDS011;56357;52.304;4.870;2023-04-25T00:32:24;7.13;;;1.27;;
69244;SDS011;56357;52.304;4.870;2023-04-25T00:34:51;5.70;;;1.20;;
69244;SDS011;56357;52.304;4.870;2023-04-25T00:37:17;9.60;;;1.30;;
69244;SDS011;56357;52.304;4.870;2023-04-25T00:39:44;6.80;;;1.02;;
69244;SDS011;56357;52.304;4.870;2023-04-25T00:42:11;9.63;;;1.20;;
69244;SDS011;56357;52.304;4.870;2023-04-25T00:44:37;7.57;;;0.90;;
69244;SDS011;56357;52.304;4.870;2023-04-25T00:47:04;9.00;;;1.00;;
69244;SDS011;56357;52.304;4.870;2023-04-25T00:49:31;5.43;;;1.10;;
69244;SDS011;56357;52.304;4.870;2023-04-25T00:51:57;7.18;;;1.33;;
69244;SDS011;56357;52.304;4.870;2023-04-25T00:54:24;7.60;;;1.63;;
69244;SDS011;56357;52.304;4.870;2023-04-25T00:56:50;7.15;;;1.42;;
69244;SDS011;56357;52.304;4.870;2023-04-25T00:59:17;9.23;;;1.48;;
69244;SDS011;56357;52.304;4.870;2023-04-25T01:01:45;7.47;;;1.00;;
69244;SDS011;56357;52.304;4.870;2023-04-25T01:04:12;14.32;;;1.42;;
69244;SDS011;56357;52.304;4.870;2023-04-25T01:06:39;11.10;;;1.33;;
69244;SDS011;56357;52.304;4.870;2023-04-25T01:09:06;6.85;;;1.10;;
69244;SDS011;56357;52.304;4.870;2023-04-25T01:11:33;8.15;;;1.08;;
69244;SDS011;56357;52.304;4.870;2023-04-25T01:14:00;7.95;;;1.33;;
69244;SDS011;56357;52.304;4.870;2023-04-25T01:16:27;7.97;;;1.15;;
69244;SDS011;56357;52.304;4.870;2023-04-25T01:18:54;7.03;;;1.20;;
69244;SDS011;56357;52.304;4.870;2023-04-25T01:21:20;11.15;;;1.23;;
69244;SDS011;56357;52.304;4.870;2023-04-25T01:23:47;8.95;;;1.13;;
69244;SDS011;56357;52.304;4.870;2023-04-25T01:26:13;7.57;;;1.52;;
69244;SDS011;56357;52.304;4.870;2023-04-25T01:28:40;5.68;;;1.10;;
69244;SDS011;56357;52.304;4.870;2023-04-25T01:31:06;8.50;;;1.10;;
69244;SDS011;56357;52.304;4.870;2023-04-25T01:33:33;6.45;;;0.85;;
69244;SDS011;56357;52.304;4.870;2023-04-25T01:35:59;6.35;;;0.90;;
69244;SDS011;56357;52.304;4.870;2023-04-25T01:38:26;8.48;;;1.10;;
69244;SDS011;56357;52.304;4.870;2023-04-25T01:40:52;8.13;;;1.08;;
69244;SDS011;56357;52.304;4.870;2023-04-25T01:43:19;8.33;;;1.67;;
69244;SDS011;56357;52.304;4.870;2023-04-25T01:45:46;7.13;;;0.90;;
69244;SDS011;56357;52.304;4.870;2023-04-25T01:48:14;6.55;;;1.13;;
69244;SDS011;56357;52.304;4.870;2023-04-25T01:50:40;6.78;;;1.58;;
69244;SDS011;56357;52.304;4.870;2023-04-25T01:53:07;4.68;;;0.85;;
69244;SDS011;56357;52.304;4.870;2023-04-25T01:55:35;6.23;;;0.93;;
69244;SDS011;56357;52.304;4.870;2023-04-25T01:58:02;6.80;;;0.82;;
69244;SDS011;56357;52.304;4.870;2023-04-25T02:00:29;7.18;;;1.00;;
69244;SDS011;56357;52.304;4.870;2023-04-25T02:02:57;8.43;;;1.08;;
69244;SDS011;56357;52.304;4.870;2023-04-25T02:05:24;8.77;;;0.95;;
69244;SDS011;56357;52.304;4.870;2023-04-25T02:07:51;7.17;;;0.97;;
69244;SDS011;56357;52.304;4.870;2023-04-25T02:10:17;6.10;;;0.93;;
69244;SDS011;56357;52.304;4.870;2023-04-25T02:12:43;10.20;;;1.33;;
69244;SDS011;56357;52.304;4.870;2023-04-25T02:15:10;8.75;;;1.73;;
69244;SDS011;56357;52.304;4.870;2023-04-25T02:17:36;8.02;;;0.95;;
69244;SDS011;56357;52.304;4.870;2023-04-25T02:20:04;10.43;;;1.70;;
69244;SDS011;56357;52.304;4.870;2023-04-25T02:22:31;7.93;;;1.02;;
69244;SDS011;56357;52.304;4.870;2023-04-25T02:24:58;7.10;;;1.25;;
69244;SDS011;56357;52.304;4.870;2023-04-25T02:27:25;6.45;;;1.00;;
69244;SDS011;56357;52.304;4.870;2023-04-25T02:29:51;8.38;;;1.20;;
69244;SDS011;56357;52.304;4.870;2023-04-25T02:32:18;7.77;;;1.20;;
69244;SDS011;56357;52.304;4.870;2023-04-25T02:34:44;10.35;;;1.20;;
69244;SDS011;56357;52.304;4.870;2023-04-25T02:37:11;10.45;;;1.10;;
69244;SDS011;56357;52.304;4.870;2023-04-25T02:39:38;9.43;;;1.73;;
69244;SDS011;56357;52.304;4.870;2023-04-25T02:42:05;6.50;;;1.08;;
69244;SDS011;56357;52.304;4.870;2023-04-25T02:44:31;8.37;;;1.13;;
69244;SDS011;56357;52.304;4.870;2023-04-25T02:46:57;6.30;;;1.02;;
69244;SDS011;56357;52.304;4.870;2023-04-25T02:49:24;7.20;;;1.00;;
69244;SDS011;56357;52.304;4.870;2023-04-25T02:51:50;8.80;;;1.00;;
69244;SDS011;56357;52.304;4.870;2023-04-25T02:54:17;3.63;;;0.60;;
69244;SDS011;56357;52.304;4.870;2023-04-25T02:56:43;6.87;;;0.80;;
69244;SDS011;56357;52.304;4.870;2023-04-25T02:59:09;8.50;;;0.77;;
69244;SDS011;56357;52.304;4.870;2023-04-25T03:01:36;4.53;;;0.63;;
69244;SDS011;56357;52.304;4.870;2023-04-25T03:04:02;4.65;;;0.90;;
69244;SDS011;56357;52.304;4.870;2023-04-25T03:06:28;7.00;;;0.60;;
69244;SDS011;56357;52.304;4.870;2023-04-25T03:08:55;5.73;;;0.90;;
69244;SDS011;56357;52.304;4.870;2023-04-25T03:11:25;4.43;;;0.80;;
69244;SDS011;56357;52.304;4.870;2023-04-25T03:13:52;7.35;;;1.10;;
69244;SDS011;56357;52.304;4.870;2023-04-25T03:16:18;3.95;;;0.80;;
69244;SDS011;56357;52.304;4.870;2023-04-25T03:18:45;7.45;;;0.90;;
69244;SDS011;56357;52.304;4.870;2023-04-25T03:21:11;5.53;;;0.70;;
69244;SDS011;56357;52.304;4.870;2023-04-25T03:23:37;6.03;;;0.80;;
69244;SDS011;56357;52.304;4.870;2023-04-25T03:26:04;4.53;;;0.77;;
69244;SDS011;56357;52.304;4.870;2023-04-25T03:28:30;4.28;;;0.80;;
69244;SDS011;56357;52.304;4.870;2023-04-25T03:30:57;5.15;;;0.73;;
69244;SDS011;56357;52.304;4.870;2023-04-25T03:33:23;4.07;;;0.87;;
69244;SDS011;56357;52.304;4.870;2023-04-25T03:35:50;4.95;;;0.60;;
69244;SDS011;56357;52.304;4.870;2023-04-25T03:38:17;5.60;;;0.80;;
69244;SDS011;56357;52.304;4.870;2023-04-25T03:40:44;6.43;;;0.90;;
69244;SDS011;56357;52.304;4.870;2023-04-25T03:43:10;6.65;;;0.70;;
69244;SDS011;56357;52.304;4.870;2023-04-25T03:45:37;7.33;;;0.80;;
69244;SDS011;56357;52.304;4.870;2023-04-25T03:48:03;4.22;;;0.57;;
69244;SDS011;56357;52.304;4.870;2023-04-25T03:50:30;5.38;;;0.85;;
69244;SDS011;56357;52.304;4.870;2023-04-25T03:52:56;5.53;;;0.80;;
69244;SDS011;56357;52.304;4.870;2023-04-25T03:55:23;4.72;;;0.73;;
69244;SDS011;56357;52.304;4.870;2023-04-25T03:57:49;4.67;;;0.57;;
69244;SDS011;56357;52.304;4.870;2023-04-25T04:00:16;4.10;;;0.60;;
69244;SDS011;56357;52.304;4.870;2023-04-25T04:02:42;5.25;;;0.77;;
69244;SDS011;56357;52.304;4.870;2023-04-25T04:05:09;5.78;;;0.50;;
69244;SDS011;56357;52.304;4.870;2023-04-25T04:07:35;6.95;;;0.60;;
69244;SDS011;56357;52.304;4.870;2023-04-25T04:10:05;7.63;;;1.10;;
69244;SDS011;56357;52.304;4.870;2023-04-25T04:12:33;7.70;;;0.80;;
69244;SDS011;56357;52.304;4.870;2023-04-25T04:14:59;3.83;;;0.52;;
69244;SDS011;56357;52.304;4.870;2023-04-25T04:17:26;7.25;;;1.13;;
69244;SDS011;56357;52.304;4.870;2023-04-25T04:19:52;3.97;;;0.82;;
69244;SDS011;56357;52.304;4.870;2023-04-25T04:22:18;5.57;;;0.93;;
69244;SDS011;56357;52.304;4.870;2023-04-25T04:24:45;5.03;;;0.63;;
69244;SDS011;56357;52.304;4.870;2023-04-25T04:27:11;6.00;;;0.65;;
69244;SDS011;56357;52.304;4.870;2023-04-25T04:29:38;4.78;;;0.80;;
69244;SDS011;56357;52.304;4.870;2023-04-25T04:32:05;4.65;;;0.60;;
69244;SDS011;56357;52.304;4.870;2023-04-25T04:34:33;5.67;;;0.60;;
69244;SDS011;56357;52.304;4.870;2023-04-25T04:37:00;4.88;;;0.60;;
69244;SDS011;56357;52.304;4.870;2023-04-25T04:39:27;3.00;;;0.40;;
69244;SDS011;56357;52.304;4.870;2023-04-25T04:41:53;6.53;;;0.88;;
69244;SDS011;56357;52.304;4.870;2023-04-25T04:44:20;6.20;;;0.82;;
69244;SDS011;56357;52.304;4.870;2023-04-25T04:46:46;5.70;;;0.80;;
69244;SDS011;56357;52.304;4.870;2023-04-25T04:49:13;5.40;;;0.57;;
69244;SDS011;56357;52.304;4.870;2023-04-25T04:51:40;4.07;;;0.63;;
69244;SDS011;56357;52.304;4.870;2023-04-25T04:54:09;4.85;;;0.73;;
69244;SDS011;56357;52.304;4.870;2023-04-25T04:56:35;3.13;;;0.50;;
69244;SDS011;56357;52.304;4.870;2023-04-25T04:59:02;5.60;;;1.10;;
69244;SDS011;56357;52.304;4.870;2023-04-25T05:01:28;6.88;;;0.70;;
69244;SDS011;56357;52.304;4.870;2023-04-25T05:03:55;6.80;;;0.90;;
69244;SDS011;56357;52.304;4.870;2023-04-25T05:06:25;5.18;;;0.75;;
69244;SDS011;56357;52.304;4.870;2023-04-25T05:08:52;6.05;;;0.70;;
69244;SDS011;56357;52.304;4.870;2023-04-25T05:11:19;6.00;;;1.17;;
69244;SDS011;56357;52.304;4.870;2023-04-25T05:13:45;7.43;;;0.95;;
69244;SDS011;56357;52.304;4.870;2023-04-25T05:16:12;3.58;;;0.57;;
69244;SDS011;56357;52.304;4.870;2023-04-25T05:18:39;6.00;;;1.00;;
69244;SDS011;56357;52.304;4.870;2023-04-25T05:21:06;6.88;;;0.90;;
69244;SDS011;56357;52.304;4.870;2023-04-25T05:23:32;7.57;;;1.13;;
69244;SDS011;56357;52.304;4.870;2023-04-25T05:25:59;6.03;;;0.63;;
69244;SDS011;56357;52.304;4.870;2023-04-25T05:28:26;5.70;;;0.80;;
69244;SDS011;56357;52.304;4.870;2023-04-25T05:30:52;5.20;;;0.65;;
69244;SDS011;56357;52.304;4.870;2023-04-25T05:33:19;5.72;;;0.63;;
69244;SDS011;56357;52.304;4.870;2023-04-25T05:35:45;6.27;;;0.90;;
69244;SDS011;56357;52.304;4.870;2023-04-25T05:38:12;6.95;;;1.13;;
69244;SDS011;56357;52.304;4.870;2023-04-25T05:40:38;7.43;;;1.20;;
69244;SDS011;56357;52.304;4.870;2023-04-25T05:43:05;4.43;;;0.52;;
69244;SDS011;56357;52.304;4.870;2023-04-25T05:45:31;6.63;;;1.08;;
69244;SDS011;56357;52.304;4.870;2023-04-25T05:47:57;7.23;;;0.90;;
69244;SDS011;56357;52.304;4.870;2023-04-25T05:50:24;8.82;;;1.25;;
69244;SDS011;56357;52.304;4.870;2023-04-25T05:52:50;12.60;;;2.00;;
69244;SDS011;56357;52.304;4.870;2023-04-25T05:55:17;7.57;;;1.15;;
69244;SDS011;56357;52.304;4.870;2023-04-25T05:57:43;13.80;;;1.00;;
69244;SDS011;56357;52.304;4.870;2023-04-25T06:00:12;7.20;;;1.10;;
69244;SDS011;56357;52.304;4.870;2023-04-25T06:02:40;6.20;;;0.80;;
69244;SDS011;56357;52.304;4.870;2023-04-25T06:05:07;6.60;;;0.80;;
69244;SDS011;56357;52.304;4.870;2023-04-25T06:07:34;9.07;;;0.82;;
69244;SDS011;56357;52.304;4.870;2023-04-25T06:10:01;10.02;;;0.65;;
69244;SDS011;56357;52.304;4.870;2023-04-25T06:12:28;8.43;;;0.90;;
69244;SDS011;56357;52.304;4.870;2023-04-25T06:14:55;8.38;;;0.93;;
69244;SDS011;56357;52.304;4.870;2023-04-25T06:17:21;12.38;;;1.00;;
69244;SDS011;56357;52.304;4.870;2023-04-25T06:19:47;8.82;;;0.90;;
69244;SDS011;56357;52.304;4.870;2023-04-25T06:22:14;7.53;;;0.90;;
69244;SDS011;56357;52.304;4.870;2023-04-25T06:24:40;7.20;;;0.70;;
69244;SDS011;56357;52.304;4.870;2023-04-25T06:27:07;5.90;;;0.60;;
69244;SDS011;56357;52.304;4.870;2023-04-25T06:29:33;7.93;;;1.20;;
69244;SDS011;56357;52.304;4.870;2023-04-25T06:31:59;7.40;;;1.05;;
69244;SDS011;56357;52.304;4.870;2023-04-25T06:34:26;5.20;;;0.85;;
69244;SDS011;56357;52.304;4.870;2023-04-25T06:36:52;5.90;;;0.90;;
69244;SDS011;56357;52.304;4.870;2023-04-25T06:39:19;6.22;;;0.82;;
69244;SDS011;56357;52.304;4.870;2023-04-25T06:41:48;6.55;;;0.70;;
69244;SDS011;56357;52.304;4.870;2023-04-25T06:44:14;6.18;;;0.85;;
69244;SDS011;56357;52.304;4.870;2023-04-25T06:46:41;6.47;;;0.45;;
69244;SDS011;56357;52.304;4.870;2023-04-25T06:49:07;5.63;;;0.63;;
69244;SDS011;56357;52.304;4.870;2023-04-25T06:51:34;5.03;;;0.55;;
69244;SDS011;56357;52.304;4.870;2023-04-25T06:54:00;6.03;;;0.40;;
69244;SDS011;56357;52.304;4.870;2023-04-25T06:56:27;7.22;;;0.93;;
69244;SDS011;56357;52.304;4.870;2023-04-25T06:58:55;6.25;;;0.63;;
69244;SDS011;56357;52.304;4.870;2023-04-25T07:01:22;5.90;;;0.80;;
69244;SDS011;56357;52.304;4.870;2023-04-25T07:03:48;3.90;;;0.30;;
69244;SDS011;56357;52.304;4.870;2023-04-25T07:06:14;4.38;;;0.50;;
69244;SDS011;56357;52.304;4.870;2023-04-25T07:08:41;5.28;;;0.80;;
69244;SDS011;56357;52.304;4.870;2023-04-25T07:11:07;4.82;;;0.60;;
69244;SDS011;56357;52.304;4.870;2023-04-25T07:13:34;3.83;;;0.90;;
69244;SDS011;56357;52.304;4.870;2023-04-25T07:16:00;7.15;;;0.88;;
69244;SDS011;56357;52.304;4.870;2023-04-25T07:18:27;3.55;;;0.50;;
69244;SDS011;56357;52.304;4.870;2023-04-25T07:20:53;4.35;;;0.50;;
69244;SDS011;56357;52.304;4.870;2023-04-25T07:23:19;6.00;;;0.50;;
69244;SDS011;56357;52.304;4.870;2023-04-25T07:25:46;4.23;;;0.50;;
69244;SDS011;56357;52.304;4.870;2023-04-25T07:28:12;6.03;;;0.60;;
69244;SDS011;56357;52.304;4.870;2023-04-25T07:30:39;5.38;;;0.50;;
69244;SDS011;56357;52.304;4.870;2023-04-25T07:33:05;4.78;;;0.60;;
69244;SDS011;56357;52.304;4.870;2023-04-25T07:35:32;5.03;;;0.60;;
69244;SDS011;56357;52.304;4.870;2023-04-25T07:37:58;5.20;;;0.90;;
69244;SDS011;56357;52.304;4.870;2023-04-25T07:40:25;7.55;;;0.85;;
69244;SDS011;56357;52.304;4.870;2023-04-25T07:42:51;5.72;;;0.60;;
69244;SDS011;56357;52.304;4.870;2023-04-25T07:45:17;5.47;;;0.50;;
69244;SDS011;56357;52.304;4.870;2023-04-25T07:47:44;4.63;;;0.60;;
69244;SDS011;56357;52.304;4.870;2023-04-25T07:50:11;5.33;;;0.50;;
69244;SDS011;56357;52.304;4.870;2023-04-25T07:52:37;5.05;;;0.70;;
69244;SDS011;56357;52.304;4.870;2023-04-25T07:55:04;5.28;;;0.73;;
69244;SDS011;56357;52.304;4.870;2023-04-25T07:57:30;2.80;;;0.30;;
69244;SDS011;56357;52.304;4.870;2023-04-25T07:59:57;7.07;;;0.82;;
69244;SDS011;56357;52.304;4.870;2023-04-25T08:02:23;3.93;;;0.63;;
69244;SDS011;56357;52.304;4.870;2023-04-25T08:04:51;5.68;;;0.40;;
69244;SDS011;56357;52.304;4.870;2023-04-25T08:07:17;7.70;;;0.80;;
69244;SDS011;56357;52.304;4.870;2023-04-25T08:09:43;6.75;;;0.70;;
69244;SDS011;56357;52.304;4.870;2023-04-25T08:12:10;5.43;;;0.35;;
69244;SDS011;56357;52.304;4.870;2023-04-25T08:14:36;5.47;;;0.40;;
69244;SDS011;56357;52.304;4.870;2023-04-25T08:17:04;4.03;;;0.40;;
69244;SDS011;56357;52.304;4.870;2023-04-25T08:19:31;5.13;;;0.50;;
69244;SDS011;56357;52.304;4.870;2023-04-25T08:21:57;3.97;;;0.52;;
69244;SDS011;56357;52.304;4.870;2023-04-25T08:24:24;6.57;;;0.50;;
69244;SDS011;56357;52.304;4.870;2023-04-25T08:26:50;4.37;;;0.30;;
69244;SDS011;56357;52.304;4.870;2023-04-25T08:29:17;3.92;;;0.50;;
69244;SDS011;56357;52.304;4.870;2023-04-25T08:31:44;6.50;;;0.60;;
69244;SDS011;56357;52.304;4.870;2023-04-25T08:34:10;4.20;;;0.50;;
69244;SDS011;56357;52.304;4.870;2023-04-25T08:36:37;5.18;;;0.70;;
69244;SDS011;56357;52.304;4.870;2023-04-25T08:39:03;3.40;;;0.87;;
69244;SDS011;56357;52.304;4.870;2023-04-25T08:41:30;3.70;;;0.65;;
69244;SDS011;56357;52.304;4.870;2023-04-25T08:43:57;3.47;;;0.43;;
69244;SDS011;56357;52.304;4.870;2023-04-25T08:46:25;3.72;;;0.50;;
69244;SDS011;56357;52.304;4.870;2023-04-25T08:48:52;3.72;;;0.57;;
69244;SDS011;56357;52.304;4.870;2023-04-25T08:51:23;3.97;;;0.50;;
69244;SDS011;56357;52.304;4.870;2023-04-25T08:53:51;4.47;;;0.45;;
69244;SDS011;56357;52.304;4.870;2023-04-25T08:56:18;4.15;;;0.40;;
69244;SDS011;56357;52.304;4.870;2023-04-25T08:58:50;6.18;;;0.43;;
69244;SDS011;56357;52.304;4.870;2023-04-25T09:01:17;4.50;;;0.45;;
69244;SDS011;56357;52.304;4.870;2023-04-25T09:03:44;5.03;;;0.70;;
69244;SDS011;56357;52.304;4.870;2023-04-25T09:06:12;6.05;;;0.65;;
69244;SDS011;56357;52.304;4.870;2023-04-25T09:08:41;4.70;;;0.60;;
69244;SDS011;56357;52.304;4.870;2023-04-25T09:11:07;5.45;;;0.60;;
69244;SDS011;56357;52.304;4.870;2023-04-25T09:13:34;4.10;;;0.73;;
69244;SDS011;56357;52.304;4.870;2023-04-25T09:16:00;4.50;;;0.40;;
69244;SDS011;56357;52.304;4.870;2023-04-25T09:18:28;4.43;;;0.50;;
69244;SDS011;56357;52.304;4.870;2023-04-25T09:21:04;2.97;;;0.40;;
69244;SDS011;56357;52.304;4.870;2023-04-25T09:23:38;4.85;;;0.90;;
69244;SDS011;56357;52.304;4.870;2023-04-25T09:26:07;2.75;;;0.40;;
69244;SDS011;56357;52.304;4.870;2023-04-25T09:28:33;3.40;;;0.60;;
69244;SDS011;56357;52.304;4.870;2023-04-25T09:31:00;4.25;;;0.40;;
69244;SDS011;56357;52.304;4.870;2023-04-25T09:33:28;2.70;;;0.60;;
69244;SDS011;56357;52.304;4.870;2023-04-25T09:36:03;6.55;;;0.73;;
69244;SDS011;56357;52.304;4.870;2023-04-25T09:38:44;3.13;;;0.40;;
69244;SDS011;56357;52.304;4.870;2023-04-25T09:41:12;3.80;;;0.60;;
69244;SDS011;56357;52.304;4.870;2023-04-25T09:43:39;5.65;;;0.50;;
69244;SDS011;56357;52.304;4.870;2023-04-25T09:46:09;4.88;;;0.77;;
69244;SDS011;56357;52.304;4.870;2023-04-25T09:48:36;6.28;;;0.43;;
69244;SDS011;56357;52.304;4.870;2023-04-25T09:51:07;6.10;;;0.52;;
69244;SDS011;56357;52.304;4.870;2023-04-25T09:53:39;4.93;;;0.53;;
69244;SDS011;56357;52.304;4.870;2023-04-25T09:56:08;6.00;;;0.68;;
69244;SDS011;56357;52.304;4.870;2023-04-25T09:58:36;4.60;;;0.60;;
69244;SDS011;56357;52.304;4.870;2023-04-25T10:01:05;6.03;;;0.68;;
69244;SDS011;56357;52.304;4.870;2023-04-25T10:03:34;4.80;;;0.60;;
69244;SDS011;56357;52.304;4.870;2023-04-25T10:06:06;3.65;;;0.60;;
69244;SDS011;56357;52.304;4.870;2023-04-25T10:08:36;4.85;;;0.50;;
69244;SDS011;56357;52.304;4.870;2023-04-25T10:11:04;3.45;;;0.65;;
69244;SDS011;56357;52.304;4.870;2023-04-25T10:13:32;4.53;;;0.75;;
69244;SDS011;56357;52.304;4.870;2023-04-25T10:16:00;5.47;;;0.50;;
69244;SDS011;56357;52.304;4.870;2023-04-25T10:18:28;4.05;;;0.50;;
69244;SDS011;56357;52.304;4.870;2023-04-25T10:20:57;3.50;;;0.50;;
69244;SDS011;56357;52.304;4.870;2023-04-25T10:23:25;4.55;;;0.43;;
69244;SDS011;56357;52.304;4.870;2023-04-25T10:25:53;5.10;;;0.57;;
69244;SDS011;56357;52.304;4.870;2023-04-25T10:28:20;7.15;;;0.60;;
69244;SDS011;56357;52.304;4.870;2023-04-25T10:31:00;4.47;;;0.70;;
69244;SDS011;56357;52.304;4.870;2023-04-25T10:33:38;4.00;;;0.70;;
69244;SDS011;56357;52.304;4.870;2023-04-25T10:36:10;4.18;;;0.35;;
69244;SDS011;56357;52.304;4.870;2023-04-25T10:38:37;3.00;;;0.68;;
69244;SDS011;56357;52.304;4.870;2023-04-25T10:41:04;4.53;;;0.55;;
69244;SDS011;56357;52.304;4.870;2023-04-25T10:46:13;3.60;;;0.40;;
69244;SDS011;56357;52.304;4.870;2023-04-25T10:48:53;3.75;;;0.57;;
69244;SDS011;56357;52.304;4.870;2023-04-25T10:51:27;4.50;;;0.40;;
69244;SDS011;56357;52.304;4.870;2023-04-25T10:59:17;4.47;;;0.70;;
69244;SDS011;56357;52.304;4.870;2023-04-25T11:01:47;5.35;;;0.60;;
69244;SDS011;56357;52.304;4.870;2023-04-25T11:07:05;5.47;;;0.63;;
69244;SDS011;56357;52.304;4.870;2023-04-25T11:09:49;4.43;;;0.73;;
69244;SDS011;56357;52.304;4.870;2023-04-25T11:12:16;3.30;;;0.40;;
69244;SDS011;56357;52.304;4.870;2023-04-25T11:14:42;5.72;;;0.80;;
69244;SDS011;56357;52.304;4.870;2023-04-25T11:17:09;4.97;;;0.75;;
69244;SDS011;56357;52.304;4.870;2023-04-25T11:19:36;4.95;;;0.70;;
69244;SDS011;56357;52.304;4.870;2023-04-25T11:22:03;5.60;;;0.70;;
69244;SDS011;56357;52.304;4.870;2023-04-25T11:24:31;6.07;;;0.60;;
69244;SDS011;56357;52.304;4.870;2023-04-25T11:26:59;3.22;;;0.50;;
69244;SDS011;56357;52.304;4.870;2023-04-25T11:29:29;5.25;;;0.63;;
69244;SDS011;56357;52.304;4.870;2023-04-25T11:31:56;3.75;;;0.80;;
69244;SDS011;56357;52.304;4.870;2023-04-25T11:34:24;5.07;;;0.65;;
69244;SDS011;56357;52.304;4.870;2023-04-25T11:36:51;4.63;;;0.40;;
69244;SDS011;56357;52.304;4.870;2023-04-25T11:39:19;4.38;;;0.70;;
69244;SDS011;56357;52.304;4.870;2023-04-25T11:41:46;4.20;;;0.60;;
69244;SDS011;56357;52.304;4.870;2023-04-25T11:44:16;3.67;;;0.40;;
69244;SDS011;56357;52.304;4.870;2023-04-25T11:46:44;4.57;;;0.60;;
69244;SDS011;56357;52.304;4.870;2023-04-25T11:49:11;5.43;;;0.73;;
69244;SDS011;56357;52.304;4.870;2023-04-25T11:51:41;4.05;;;0.50;;
69244;SDS011;56357;52.304;4.870;2023-04-25T11:54:09;4.57;;;0.80;;
69244;SDS011;56357;52.304;4.870;2023-04-25T11:56:36;3.08;;;0.60;;
69244;SDS011;56357;52.304;4.870;2023-04-25T11:59:03;4.38;;;0.60;;
69244;SDS011;56357;52.304;4.870;2023-04-25T12:01:32;4.18;;;0.40;;
69244;SDS011;56357;52.304;4.870;2023-04-25T12:06:43;5.47;;;0.70;;
69244;SDS011;56357;52.304;4.870;2023-04-25T12:09:12;8.35;;;0.80;;
69244;SDS011;56357;52.304;4.870;2023-04-25T12:14:24;5.32;;;0.75;;
69244;SDS011;56357;52.304;4.870;2023-04-25T12:16:52;3.33;;;0.68;;
69244;SDS011;56357;52.304;4.870;2023-04-25T12:19:20;3.35;;;0.50;;
69244;SDS011;56357;52.304;4.870;2023-04-25T12:21:48;4.88;;;0.60;;
69244;SDS011;56357;52.304;4.870;2023-04-25T12:24:16;3.43;;;0.60;;
69244;SDS011;56357;52.304;4.870;2023-04-25T12:29:26;3.42;;;0.50;;
69244;SDS011;56357;52.304;4.870;2023-04-25T12:31:54;3.83;;;0.60;;
69244;SDS011;56357;52.304;4.870;2023-04-25T12:34:22;3.55;;;0.68;;
69244;SDS011;56357;52.304;4.870;2023-04-25T12:36:50;4.28;;;0.75;;
69244;SDS011;56357;52.304;4.870;2023-04-25T12:39:17;4.40;;;0.40;;
69244;SDS011;56357;52.304;4.870;2023-04-25T12:41:45;4.90;;;0.73;;
69244;SDS011;56357;52.304;4.870;2023-04-25T12:44:12;6.10;;;1.10;;
69244;SDS011;56357;52.304;4.870;2023-04-25T12:46:39;4.72;;;0.60;;
69244;SDS011;56357;52.304;4.870;2023-04-25T12:49:06;5.63;;;0.65;;
69244;SDS011;56357;52.304;4.870;2023-04-25T12:51:34;3.55;;;0.50;;
69244;SDS011;56357;52.304;4.870;2023-04-25T12:54:02;4.95;;;0.55;;
69244;SDS011;56357;52.304;4.870;2023-04-25T12:56:29;4.30;;;0.60;;
69244;SDS011;56357;52.304;4.870;2023-04-25T12:58:57;6.70;;;0.85;;
69244;SDS011;56357;52.304;4.870;2023-04-25T13:01:25;5.63;;;0.83;;
69244;SDS011;56357;52.304;4.870;2023-04-25T13:03:52;4.80;;;0.63;;
69244;SDS011;56357;52.304;4.870;2023-04-25T13:06:19;4.60;;;0.63;;
69244;SDS011;56357;52.304;4.870;2023-04-25T13:08:46;4.45;;;0.88;;
69244;SDS011;56357;52.304;4.870;2023-04-25T13:11:13;4.95;;;0.65;;
69244;SDS011;56357;52.304;4.870;2023-04-25T13:13:40;3.65;;;0.80;;
69244;SDS011;56357;52.304;4.870;2023-04-25T13:16:07;3.55;;;0.60;;
69244;SDS011;56357;52.304;4.870;2023-04-25T13:18:34;4.72;;;0.82;;
69244;SDS011;56357;52.304;4.870;2023-04-25T13:21:01;4.38;;;0.57;;
69244;SDS011;56357;52.304;4.870;2023-04-25T13:23:28;4.68;;;0.63;;
69244;SDS011;56357;52.304;4.870;2023-04-25T13:25:55;4.93;;;0.80;;
69244;SDS011;56357;52.304;4.870;2023-04-25T13:28:22;5.28;;;0.60;;
69244;SDS011;56357;52.304;4.870;2023-04-25T13:30:50;6.05;;;0.70;;
69244;SDS011;56357;52.304;4.870;2023-04-25T13:33:16;4.68;;;0.55;;
69244;SDS011;56357;52.304;4.870;2023-04-25T13:35:43;4.78;;;0.68;;
69244;SDS011;56357;52.304;4.870;2023-04-25T13:38:11;4.40;;;0.80;;
69244;SDS011;56357;52.304;4.870;2023-04-25T13:40:38;4.32;;;0.73;;
69244;SDS011;56357;52.304;4.870;2023-04-25T13:43:04;4.75;;;0.60;;
69244;SDS011;56357;52.304;4.870;2023-04-25T13:45:32;4.05;;;0.98;;
69244;SDS011;56357;52.304;4.870;2023-04-25T13:47:58;3.95;;;0.60;;
69244;SDS011;56357;52.304;4.870;2023-04-25T13:50:25;4.20;;;1.13;;
69244;SDS011;56357;52.304;4.870;2023-04-25T13:52:51;4.32;;;0.60;;
69244;SDS011;56357;52.304;4.870;2023-04-25T13:55:18;3.42;;;0.85;;
69244;SDS011;56357;52.304;4.870;2023-04-25T13:57:44;6.50;;;0.90;;
69244;SDS011;56357;52.304;4.870;2023-04-25T14:00:11;5.80;;;0.80;;
69244;SDS011;56357;52.304;4.870;2023-04-25T14:02:39;3.40;;;0.83;;
69244;SDS011;56357;52.304;4.870;2023-04-25T14:05:06;6.00;;;1.10;;
69244;SDS011;56357;52.304;4.870;2023-04-25T14:07:34;4.28;;;0.98;;
69244;SDS011;56357;52.304;4.870;2023-04-25T14:10:01;5.03;;;0.75;;
69244;SDS011;56357;52.304;4.870;2023-04-25T14:12:29;7.30;;;1.40;;
69244;SDS011;56357;52.304;4.870;2023-04-25T14:14:55;5.00;;;1.10;;
69244;SDS011;56357;52.304;4.870;2023-04-25T14:17:21;6.05;;;0.93;;
69244;SDS011;56357;52.304;4.870;2023-04-25T14:19:49;4.50;;;0.70;;
69244;SDS011;56357;52.304;4.870;2023-04-25T14:22:15;9.23;;;1.15;;
69244;SDS011;56357;52.304;4.870;2023-04-25T14:24:42;4.90;;;0.60;;
69244;SDS011;56357;52.304;4.870;2023-04-25T14:27:09;7.85;;;1.00;;
69244;SDS011;56357;52.304;4.870;2023-04-25T14:29:35;6.25;;;0.95;;
69244;SDS011;56357;52.304;4.870;2023-04-25T14:32:02;4.10;;;0.70;;
69244;SDS011;56357;52.304;4.870;2023-04-25T14:34:30;6.82;;;0.90;;
69244;SDS011;56357;52.304;4.870;2023-04-25T14:36:56;6.95;;;0.98;;
69244;SDS011;56357;52.304;4.870;2023-04-25T14:39:23;7.68;;;1.23;;
69244;SDS011;56357;52.304;4.870;2023-04-25T14:41:49;6.50;;;1.10;;
69244;SDS011;56357;52.304;4.870;2023-04-25T14:44:16;6.53;;;1.02;;
69244;SDS011;56357;52.304;4.870;2023-04-25T14:46:42;5.78;;;1.25;;
69244;SDS011;56357;52.304;4.870;2023-04-25T14:49:09;6.55;;;0.90;;
69244;SDS011;56357;52.304;4.870;2023-04-25T14:51:35;6.30;;;1.10;;
69244;SDS011;56357;52.304;4.870;2023-04-25T14:54:02;6.10;;;1.23;;
69244;SDS011;56357;52.304;4.870;2023-04-25T14:56:28;7.65;;;1.10;;
69244;SDS011;56357;52.304;4.870;2023-04-25T14:58:55;4.97;;;1.17;;
69244;SDS011;56357;52.304;4.870;2023-04-25T15:01:21;5.25;;;0.90;;
69244;SDS011;56357;52.304;4.870;2023-04-25T15:03:48;5.88;;;0.90;;
69244;SDS011;56357;52.304;4.870;2023-04-25T15:06:15;8.18;;;0.88;;